• Join FlightAware (Why Join?)
  • Login
  • US Flag 
02:15AM EST


 

Airport Tracker/Info


-or-


 

Live Flight TrackerFlight Track Log ✈ N54PT ✈ 16-May-2013 ✈ S52 - KUAO

Flight Track Log - Related Links

Times and Time Zones

All times are in EDT time to prevent confusion due to time zone crossing. See the N54PT flight status page for this flight to view local times or setup timezone preferences in your user account.

Time Position Orientation Groundspeed Altitude Reporting Facility
EDT Latitude Longitude Course Direction KTS MPH feet Rate Location/Type
07:19PM 48.0753 -120.0536 214° Southwest 152 175 13,400  Level Seattle Center
07:20PM 48.0311 -120.0506 177° South 153 176 14,300 927 Climbing Seattle Center
07:21PM 47.9906 -120.0803 206° Southwest 161 185 15,300 1,082 Climbing Seattle Center
07:22PM 47.9572 -120.1253 222° Southwest 163 188 16,500 1,180 Climbing Seattle Center
07:23PM 47.9178 -120.1614 212° Southwest 165 190 17,700 1,082 Climbing Seattle Center
07:24PM 48.1242 -120.3925 214° Southwest  Level FlightAware Approximate
07:24PM 47.8786 -120.2006 214° Southwest 168 193 18,700  Level Seattle Center
07:25PM 47.8292 -120.2531 215° Southwest 181 208 19,800 639 Climbing Seattle Center
07:26PM 47.7861 -120.2969 214° Southwest 185 213 20,000 148 Climbing Seattle Center
07:27PM 47.7383 -120.3450 214° Southwest 204 235 20,100  Climbing Seattle Center
07:28PM 47.6883 -120.3978 215° Southwest 217 250 20,000 -49 Descending Seattle Center
07:29PM 47.6375 -120.4514 215° Southwest 223 257 20,000  Level Seattle Center
07:30PM 47.5867 -120.5047 215° Southwest 225 259 20,000  Level Seattle Center
07:31PM 47.5361 -120.5564 215° Southwest 223 257 20,000  Level Seattle Center
07:32PM 47.4836 -120.6086 214° Southwest 226 260 20,000  Level Seattle Center
07:33PM 47.4322 -120.6611 215° Southwest 226 260 20,000  Level Seattle Center
07:34PM 47.3797 -120.7128 214° Southwest 226 260 20,000  Level Seattle Center
07:35PM 47.3297 -120.7636 215° Southwest 222 255 20,000  Level Seattle Center
07:36PM 47.2675 -120.8261 214° Southwest 226 260 20,000  Level Seattle Center
07:37PM 47.2194 -120.8742 214° Southwest 227 261 20,000  Level Seattle Center
07:38PM 47.1686 -120.9261 215° Southwest 225 259 20,000  Level Seattle Center
07:39PM 47.1172 -120.9778 214° Southwest 227 261 20,000  Level Seattle Center
07:40PM 47.0697 -121.0361 220° Southwest 225 259 20,000  Level Seattle Center
07:41PM 47.0278 -121.1058 229° Southwest 228 262 20,000  Level Seattle Center
07:42PM 46.9764 -121.1878 227° Southwest 227 261 20,000  Level Seattle Center
07:43PM 46.9342 -121.2539 227° Southwest 223 257 20,000  Level Seattle Center
07:44PM 46.8917 -121.3219 228° Southwest 227 261 20,000  Level Seattle Center
07:45PM 46.8494 -121.3903 228° Southwest 227 261 20,000  Level Seattle Center
07:46PM 46.8067 -121.4575 227° Southwest 227 261 20,000  Level Seattle Center
07:47PM 46.7653 -121.5225 227° Southwest 220 253 20,000  Level Seattle Center
07:48PM 46.7214 -121.5886 226° Southwest 226 260 20,000  Level Seattle Center
07:49PM 46.6836 -121.6506 228° Southwest 220 253 20,000  Level Seattle Center
07:50PM 46.6336 -121.7278 227° Southwest 220 253 20,000 -295 Level Seattle Center
07:51PM 46.5903 -121.7947 227° Southwest 225 259 19,400 -639 Descending Seattle Center
07:52PM 46.5456 -121.8644 227° Southwest 233 268 18,700 -689 Descending Seattle Center
07:53PM 46.5006 -121.9339 227° Southwest 236 272 18,000 -738 Descending Seattle Center
07:54PM 46.4544 -122.0039 226° Southwest 241 277 17,200 -1,033 Descending Seattle Center
07:55PM 46.4089 -122.0753 227° Southwest 245 282 15,900 -1,180 Descending Seattle Center
07:56PM 46.3647 -122.1431 227° Southwest 237 273 14,800 -1,267 Descending Seattle Center
07:57PM 46.3411 -122.1847 231° Southwest 213 245 14,000 -1,180 Descending Seattle Center
07:57PM 46.3247 -122.2036 219° Southwest 217 250 13,600 -1,279 Descending Seattle Center
07:58PM 46.2978 -122.2497 230° Southwest 220 253 12,700 -1,574 Descending Seattle Center
07:58PM 46.2761 -122.2800 224° Southwest 215 247 12,000 -1,082 Descending Seattle Center
07:59PM 46.2581 -122.3103 229° Southwest 199 229 11,600 -656 Descending Seattle Center
07:59PM 46.2333 -122.3203 196° South 197 227 11,300 -590 Descending Seattle Center
08:00PM 46.2072 -122.3381 205° Southwest 199 229 11,000 -290 Descending Seattle Center
08:00PM 46.1803 -122.3522 200° South 196 226 11,000 -197 Level Seattle Center
08:01PM 46.1569 -122.3683 206° Southwest 198 228 10,800 -689 Descending Seattle Center
08:02PM 46.1275 -122.3844 201° Southwest 203 234 10,300 -800 Descending Seattle Center
08:02PM 46.0981 -122.3992 199° South 220 253 10,000 -492 Descending Seattle Center
08:03PM 46.0683 -122.4139 199° South 219 252 9,800 -492 Descending Seattle Center
08:03PM 46.0378 -122.4336 204° Southwest 222 255 9,500 -590 Descending Seattle Center
08:04PM 46.0106 -122.4464 198° South 223 257 9,200 -590 Descending Seattle Center
08:04PM 45.9808 -122.4633 202° Southwest 223 257 8,900 -590 Descending Seattle Center
08:05PM 45.9525 -122.4758 197° South 222 255 8,600 -885 Descending Seattle Center
08:05PM 45.9197 -122.4825 188° South 229 264 8,000 -1,180 Descending Seattle Center
08:06PM 45.8889 -122.4897 189° South 228 262 7,400 -984 Descending Seattle Center
08:06PM 45.8567 -122.5022 195° South 230 265 7,000 -885 Descending Seattle Center
08:07PM 45.8283 -122.5103 191° South 224 258 6,500 -1,000 Descending Seattle Center
08:07PM 45.7989 -122.5169 189° South 213 245 6,000 -984 Descending Seattle Center
08:08PM 45.7711 -122.5294 197° South 215 247 5,500 -984 Descending Seattle Center
08:08PM 45.7403 -122.5378 191° South 211 243 5,000 -984 Descending Seattle Center
08:09PM 45.7142 -122.5467 193° South 211 243 4,500 -984 Descending Seattle Center
08:09PM 45.6817 -122.5589 195° South 207 238 4,000 -492 Descending Seattle Center
08:10PM 45.6489 -122.5692 192° South 202 232 4,000  Level Seattle Center
08:10PM 45.6283 -122.5744 190° South 192 221 4,000  Level Seattle Center
08:11PM 45.5978 -122.5883 198° South 194 223 4,000  Level Seattle Center
08:11PM 45.5811 -122.6092 221° Southwest 188 216 4,000  Level Seattle Center
08:12PM 45.5578 -122.6367 220° Southwest 188 216 4,000 -100 Level Seattle Center
08:12PM 45.5383 -122.6544 213° Southwest 190 219 3,900 -492 Descending Seattle Center
08:13PM 45.5164 -122.6803 220° Southwest 186 214 3,500 -689 Descending Seattle Center
08:13PM 45.4975 -122.6989 215° Southwest 184 212 3,200 -492 Descending Seattle Center
08:14PM 45.4764 -122.7239 220° Southwest 181 208 3,000 -197 Descending Seattle Center
08:14PM 45.4567 -122.7339 200° South 167 192 3,000 -387 Level Seattle Center
08:15PM 45.4317 -122.7386 188° South 170 196 2,600 -238 Descending Seattle Center
08:16PM 45.3850 -122.7456 186° South 168 193 2,600 -148 Level Seattle Center
08:17PM 45.3394 -122.7586 191° South 168 193 2,300 -443 Descending Seattle Center
08:18PM 45.2900 -122.7839 200° South 181 208 1,700 -443 Descending Seattle Center
08:19PM 45.2397 -122.8019 194° South 186 214 1,400 -393 Descending Seattle Center
08:20PM 45.2169 -122.7825 149° Southeast 146 168 900 -590 Descending Seattle Center
08:21PM 45.2461 -122.7708 16° North 126 145 200 -689 Descending Seattle Center